sensor_id;sensor_type;location;lat;lon;timestamp;pressure;altitude;pressure_sealevel;temperature;humidity
11444;BME280;5778;47.856;12.154;2023-10-09T00:01:49;97052.84;;;13.64;100.00
11444;BME280;5778;47.856;12.154;2023-10-09T00:04:16;97051.81;;;13.70;100.00
11444;BME280;5778;47.856;12.154;2023-10-09T00:06:44;97049.31;;;13.58;100.00
11444;BME280;5778;47.856;12.154;2023-10-09T00:09:12;97050.72;;;13.66;100.00
11444;BME280;5778;47.856;12.154;2023-10-09T00:11:56;97044.34;;;13.72;100.00
11444;BME280;5778;47.856;12.154;2023-10-09T00:14:25;97053.91;;;13.63;100.00
11444;BME280;5778;47.856;12.154;2023-10-09T00:16:52;97048.84;;;13.66;100.00
11444;BME280;5778;47.856;12.154;2023-10-09T00:19:31;97044.81;;;13.64;100.00
11444;BME280;5778;47.856;12.154;2023-10-09T00:21:59;97031.94;;;13.61;100.00
11444;BME280;5778;47.856;12.154;2023-10-09T00:24:32;97038.56;;;13.53;100.00
11444;BME280;5778;47.856;12.154;2023-10-09T00:26:59;97041.22;;;13.53;100.00
11444;BME280;5778;47.856;12.154;2023-10-09T00:29:40;97038.31;;;13.55;100.00
11444;BME280;5778;47.856;12.154;2023-10-09T00:32:11;97035.63;;;13.55;100.00
11444;BME280;5778;47.856;12.154;2023-10-09T00:34:48;97013.56;;;13.64;100.00
11444;BME280;5778;47.856;12.154;2023-10-09T00:37:16;97021.34;;;13.39;100.00
11444;BME280;5778;47.856;12.154;2023-10-09T00:39:48;97015.22;;;13.44;100.00
11444;BME280;5778;47.856;12.154;2023-10-09T00:42:22;97015.53;;;13.47;100.00
11444;BME280;5778;47.856;12.154;2023-10-09T00:44:56;97006.88;;;13.67;100.00
11444;BME280;5778;47.856;12.154;2023-10-09T00:47:28;97004.25;;;13.72;100.00
11444;BME280;5778;47.856;12.154;2023-10-09T00:50:02;97000.09;;;13.86;100.00
11444;BME280;5778;47.856;12.154;2023-10-09T00:52:42;96994.50;;;13.87;100.00
11444;BME280;5778;47.856;12.154;2023-10-09T00:55:17;96975.34;;;14.00;100.00
11444;BME280;5778;47.856;12.154;2023-10-09T00:57:50;96975.09;;;14.02;100.00
11444;BME280;5778;47.856;12.154;2023-10-09T01:00:27;96979.41;;;14.08;100.00
11444;BME280;5778;47.856;12.154;2023-10-09T01:03:12;96963.34;;;14.08;100.00
11444;BME280;5778;47.856;12.154;2023-10-09T01:05:46;96962.28;;;14.09;100.00
11444;BME280;5778;47.856;12.154;2023-10-09T01:08:22;96958.00;;;14.08;100.00
11444;BME280;5778;47.856;12.154;2023-10-09T01:10:54;96959.56;;;14.04;100.00
11444;BME280;5778;47.856;12.154;2023-10-09T01:13:23;96954.78;;;14.06;100.00
11444;BME280;5778;47.856;12.154;2023-10-09T01:16:06;96960.63;;;13.98;100.00
11444;BME280;5778;47.856;12.154;2023-10-09T01:18:38;96952.84;;;13.96;100.00
11444;BME280;5778;47.856;12.154;2023-10-09T01:21:06;96951.00;;;13.97;100.00
11444;BME280;5778;47.856;12.154;2023-10-09T01:23:35;96940.22;;;13.87;100.00
11444;BME280;5778;47.856;12.154;2023-10-09T01:26:24;96939.06;;;13.73;100.00
11444;BME280;5778;47.856;12.154;2023-10-09T01:28:51;96945.03;;;13.48;100.00
11444;BME280;5778;47.856;12.154;2023-10-09T01:31:23;96944.78;;;13.23;100.00
11444;BME280;5778;47.856;12.154;2023-10-09T01:33:51;96936.28;;;13.31;100.00
11444;BME280;5778;47.856;12.154;2023-10-09T01:36:19;96939.53;;;13.33;100.00
11444;BME280;5778;47.856;12.154;2023-10-09T01:38:59;96929.06;;;13.27;100.00
11444;BME280;5778;47.856;12.154;2023-10-09T01:41:27;96928.75;;;13.23;100.00
11444;BME280;5778;47.856;12.154;2023-10-09T01:43:53;96925.28;;;13.23;100.00
11444;BME280;5778;47.856;12.154;2023-10-09T01:46:26;96937.44;;;13.09;100.00
11444;BME280;5778;47.856;12.154;2023-10-09T01:48:53;96927.88;;;13.13;100.00
11444;BME280;5778;47.856;12.154;2023-10-09T01:51:20;96935.59;;;13.14;100.00
11444;BME280;5778;47.856;12.154;2023-10-09T01:53:47;96935.91;;;13.18;100.00
11444;BME280;5778;47.856;12.154;2023-10-09T01:56:21;96937.25;;;13.15;100.00
11444;BME280;5778;47.856;12.154;2023-10-09T01:58:48;96938.28;;;13.14;100.00
11444;BME280;5778;47.856;12.154;2023-10-09T02:01:16;96928.38;;;13.10;100.00
11444;BME280;5778;47.856;12.154;2023-10-09T02:03:42;96931.63;;;13.17;100.00
11444;BME280;5778;47.856;12.154;2023-10-09T02:06:10;96924.44;;;13.17;100.00
11444;BME280;5778;47.856;12.154;2023-10-09T02:08:53;96927.81;;;13.08;100.00
11444;BME280;5778;47.856;12.154;2023-10-09T02:11:23;96920.34;;;13.10;100.00
11444;BME280;5778;47.856;12.154;2023-10-09T02:14:04;96917.16;;;13.08;100.00
11444;BME280;5778;47.856;12.154;2023-10-09T02:16:45;96920.59;;;13.08;100.00
11444;BME280;5778;47.856;12.154;2023-10-09T02:19:29;96912.06;;;13.06;100.00
11444;BME280;5778;47.856;12.154;2023-10-09T02:22:00;96915.50;;;13.02;100.00
11444;BME280;5778;47.856;12.154;2023-10-09T02:24:29;96909.81;;;12.98;100.00
11444;BME280;5778;47.856;12.154;2023-10-09T02:27:14;96911.19;;;13.01;100.00
11444;BME280;5778;47.856;12.154;2023-10-09T02:29:45;96914.22;;;12.88;100.00
11444;BME280;5778;47.856;12.154;2023-10-09T02:32:12;96907.03;;;12.88;100.00
11444;BME280;5778;47.856;12.154;2023-10-09T02:34:52;96913.22;;;12.94;100.00
11444;BME280;5778;47.856;12.154;2023-10-09T02:37:20;96904.03;;;12.85;100.00
11444;BME280;5778;47.856;12.154;2023-10-09T02:39:50;96899.81;;;12.89;100.00
11444;BME280;5778;47.856;12.154;2023-10-09T02:42:19;96904.09;;;12.90;100.00
11444;BME280;5778;47.856;12.154;2023-10-09T02:44:50;96897.69;;;12.86;100.00
11444;BME280;5778;47.856;12.154;2023-10-09T02:47:17;96892.06;;;12.87;100.00
11444;BME280;5778;47.856;12.154;2023-10-09T02:49:47;96895.19;;;12.79;100.00
11444;BME280;5778;47.856;12.154;2023-10-09T02:52:33;96880.00;;;12.80;100.00
11444;BME280;5778;47.856;12.154;2023-10-09T02:55:06;96892.06;;;12.61;100.00
11444;BME280;5778;47.856;12.154;2023-10-09T02:57:40;96878.66;;;12.56;100.00
11444;BME280;5778;47.856;12.154;2023-10-09T03:00:09;96878.66;;;12.56;100.00
11444;BME280;5778;47.856;12.154;2023-10-09T03:02:44;96878.56;;;12.46;100.00
11444;BME280;5778;47.856;12.154;2023-10-09T03:05:14;96871.91;;;12.48;100.00
11444;BME280;5778;47.856;12.154;2023-10-09T03:07:41;96868.50;;;12.53;100.00
11444;BME280;5778;47.856;12.154;2023-10-09T03:10:09;96865.56;;;12.54;100.00
11444;BME280;5778;47.856;12.154;2023-10-09T03:12:36;96863.84;;;12.43;100.00
11444;BME280;5778;47.856;12.154;2023-10-09T03:15:08;96859.09;;;12.45;100.00
11444;BME280;5778;47.856;12.154;2023-10-09T03:17:34;96858.50;;;12.43;100.00
11444;BME280;5778;47.856;12.154;2023-10-09T03:20:06;96855.78;;;12.38;100.00
11444;BME280;5778;47.856;12.154;2023-10-09T03:22:37;96852.53;;;12.31;100.00
11444;BME280;5778;47.856;12.154;2023-10-09T03:25:05;96848.25;;;12.30;100.00
11444;BME280;5778;47.856;12.154;2023-10-09T03:27:38;96853.28;;;12.27;100.00
11444;BME280;5778;47.856;12.154;2023-10-09T03:30:11;96854.47;;;12.14;100.00
11444;BME280;5778;47.856;12.154;2023-10-09T03:32:43;96837.34;;;12.10;100.00
11444;BME280;5778;47.856;12.154;2023-10-09T03:35:10;96855.38;;;12.03;100.00
11444;BME280;5778;47.856;12.154;2023-10-09T03:37:41;96832.69;;;12.01;100.00
11444;BME280;5778;47.856;12.154;2023-10-09T03:40:10;96841.19;;;11.98;100.00
11444;BME280;5778;47.856;12.154;2023-10-09T03:42:43;96839.09;;;12.00;100.00
11444;BME280;5778;47.856;12.154;2023-10-09T03:45:11;96840.63;;;11.96;100.00
11444;BME280;5778;47.856;12.154;2023-10-09T03:47:51;96831.09;;;12.00;100.00
11444;BME280;5778;47.856;12.154;2023-10-09T03:50:23;96841.19;;;11.98;100.00
11444;BME280;5778;47.856;12.154;2023-10-09T03:53:02;96838.19;;;11.94;100.00
11444;BME280;5778;47.856;12.154;2023-10-09T03:55:32;96828.34;;;11.95;100.00
11444;BME280;5778;47.856;12.154;2023-10-09T03:57:59;96830.03;;;11.79;100.00
11444;BME280;5778;47.856;12.154;2023-10-09T04:00:29;96822.44;;;11.71;100.00
11444;BME280;5778;47.856;12.154;2023-10-09T04:02:57;96829.09;;;11.69;100.00
11444;BME280;5778;47.856;12.154;2023-10-09T04:05:25;96822.78;;;11.58;100.00
11444;BME280;5778;47.856;12.154;2023-10-09T04:07:54;96830.19;;;11.56;100.00
11444;BME280;5778;47.856;12.154;2023-10-09T04:10:24;96835.53;;;11.56;100.00
11444;BME280;5778;47.856;12.154;2023-10-09T04:13:09;96826.69;;;11.51;100.00
11444;BME280;5778;47.856;12.154;2023-10-09T04:15:39;96832.25;;;11.49;100.00
11444;BME280;5778;47.856;12.154;2023-10-09T04:18:08;96831.03;;;11.40;100.00
11444;BME280;5778;47.856;12.154;2023-10-09T04:20:40;96827.59;;;11.40;100.00
11444;BME280;5778;47.856;12.154;2023-10-09T04:23:21;96833.97;;;11.39;100.00
11444;BME280;5778;47.856;12.154;2023-10-09T04:26:01;96823.31;;;11.39;100.00
11444;BME280;5778;47.856;12.154;2023-10-09T04:28:36;96824.41;;;11.43;100.00
11444;BME280;5778;47.856;12.154;2023-10-09T04:31:05;96817.09;;;11.33;100.00
11444;BME280;5778;47.856;12.154;2023-10-09T04:33:33;96819.84;;;11.38;100.00
11444;BME280;5778;47.856;12.154;2023-10-09T04:36:08;96819.75;;;11.33;100.00
11444;BME280;5778;47.856;12.154;2023-10-09T04:38:42;96810.97;;;11.33;100.00
11444;BME280;5778;47.856;12.154;2023-10-09T04:41:21;96820.25;;;11.14;100.00
11444;BME280;5778;47.856;12.154;2023-10-09T04:43:53;96817.38;;;11.15;100.00
11444;BME280;5778;47.856;12.154;2023-10-09T04:46:31;96818.06;;;11.27;100.00
11444;BME280;5778;47.856;12.154;2023-10-09T04:49:09;96809.78;;;11.24;100.00
11444;BME280;5778;47.856;12.154;2023-10-09T04:51:52;96818.06;;;11.27;100.00
11444;BME280;5778;47.856;12.154;2023-10-09T04:54:30;96814.44;;;11.33;100.00
11444;BME280;5778;47.856;12.154;2023-10-09T04:57:05;96813.81;;;11.26;100.00
11444;BME280;5778;47.856;12.154;2023-10-09T04:59:44;96823.72;;;11.31;100.00
11444;BME280;5778;47.856;12.154;2023-10-09T05:02:15;96814.59;;;11.27;100.00
11444;BME280;5778;47.856;12.154;2023-10-09T05:04:45;96816.22;;;11.28;100.00
11444;BME280;5778;47.856;12.154;2023-10-09T05:07:13;96819.44;;;11.30;100.00
11444;BME280;5778;47.856;12.154;2023-10-09T05:10:11;96813.66;;;11.33;100.00
11444;BME280;5778;47.856;12.154;2023-10-09T05:12:43;96822.19;;;11.35;100.00
11444;BME280;5778;47.856;12.154;2023-10-09T05:15:12;96814.44;;;11.33;100.00
11444;BME280;5778;47.856;12.154;2023-10-09T05:17:41;96823.63;;;11.42;100.00
11444;BME280;5778;47.856;12.154;2023-10-09T05:20:17;96813.69;;;11.38;100.00
11444;BME280;5778;47.856;12.154;2023-10-09T05:23:00;96829.66;;;11.38;100.00
11444;BME280;5778;47.856;12.154;2023-10-09T05:25:48;96822.88;;;11.47;100.00
11444;BME280;5778;47.856;12.154;2023-10-09T05:28:24;96833.97;;;11.39;100.00
11444;BME280;5778;47.856;12.154;2023-10-09T05:30:51;96834.34;;;11.47;100.00
11444;BME280;5778;47.856;12.154;2023-10-09T05:33:29;96831.63;;;11.42;100.00
11444;BME280;5778;47.856;12.154;2023-10-09T05:35:59;96828.53;;;11.50;100.00
11444;BME280;5778;47.856;12.154;2023-10-09T05:38:42;96833.22;;;11.60;100.00
11444;BME280;5778;47.856;12.154;2023-10-09T05:41:24;96830.63;;;11.65;100.00
11444;BME280;5778;47.856;12.154;2023-10-09T05:44:08;96839.75;;;11.69;100.00
11444;BME280;5778;47.856;12.154;2023-10-09T05:46:52;96843.28;;;11.58;100.00
11444;BME280;5778;47.856;12.154;2023-10-09T05:49:49;96836.66;;;11.77;100.00
11444;BME280;5778;47.856;12.154;2023-10-09T05:52:32;96843.59;;;11.78;100.00
11444;BME280;5778;47.856;12.154;2023-10-09T05:55:16;96840.56;;;11.91;100.00
11444;BME280;5778;47.856;12.154;2023-10-09T05:58:00;96846.81;;;11.80;100.00
11444;BME280;5778;47.856;12.154;2023-10-09T06:00:47;96865.53;;;11.85;100.00
11444;BME280;5778;47.856;12.154;2023-10-09T06:03:52;96870.25;;;11.78;100.00
11444;BME280;5778;47.856;12.154;2023-10-09T06:06:22;96872.31;;;11.92;100.00
11444;BME280;5778;47.856;12.154;2023-10-09T06:09:08;96876.81;;;11.92;100.00
11444;BME280;5778;47.856;12.154;2023-10-09T06:12:01;96876.09;;;11.96;100.00
11444;BME280;5778;47.856;12.154;2023-10-09T06:14:45;96880.97;;;12.04;100.00
11444;BME280;5778;47.856;12.154;2023-10-09T06:17:44;96882.34;;;12.07;100.00
11444;BME280;5778;47.856;12.154;2023-10-09T06:20:16;96877.38;;;12.15;100.00
11444;BME280;5778;47.856;12.154;2023-10-09T06:23:02;96888.50;;;12.07;100.00
11444;BME280;5778;47.856;12.154;2023-10-09T06:25:42;96859.78;;;12.14;100.00
11444;BME280;5778;47.856;12.154;2023-10-09T06:28:17;96871.38;;;12.25;100.00
11444;BME280;5778;47.856;12.154;2023-10-09T06:30:58;96876.94;;;12.45;100.00
11444;BME280;5778;47.856;12.154;2023-10-09T06:33:44;96884.19;;;12.49;100.00
11444;BME280;5778;47.856;12.154;2023-10-09T06:36:33;96878.53;;;12.67;100.00
11444;BME280;5778;47.856;12.154;2023-10-09T06:39:00;96881.31;;;12.77;100.00
11444;BME280;5778;47.856;12.154;2023-10-09T06:41:41;96879.19;;;13.06;100.00
11444;BME280;5778;47.856;12.154;2023-10-09T06:44:10;96874.63;;;13.33;100.00
11444;BME280;5778;47.856;12.154;2023-10-09T06:46:57;96882.13;;;13.36;100.00
11444;BME280;5778;47.856;12.154;2023-10-09T06:49:24;96869.97;;;13.55;100.00
11444;BME280;5778;47.856;12.154;2023-10-09T06:51:58;96881.34;;;13.77;100.00
11444;BME280;5778;47.856;12.154;2023-10-09T06:54:41;96874.78;;;13.99;100.00
11444;BME280;5778;47.856;12.154;2023-10-09T06:57:16;96869.81;;;14.18;100.00
11444;BME280;5778;47.856;12.154;2023-10-09T07:00:05;96874.22;;;14.44;100.00
11444;BME280;5778;47.856;12.154;2023-10-09T07:02:49;96864.38;;;14.64;100.00
11444;BME280;5778;47.856;12.154;2023-10-09T07:05:19;96862.28;;;14.86;100.00
11444;BME280;5778;47.856;12.154;2023-10-09T07:07:45;96862.03;;;15.08;100.00
11444;BME280;5778;47.856;12.154;2023-10-09T07:10:22;96859.91;;;15.10;100.00
11444;BME280;5778;47.856;12.154;2023-10-09T07:13:05;96860.97;;;15.29;100.00
11444;BME280;5778;47.856;12.154;2023-10-09T07:15:30;96849.47;;;15.48;100.00
11444;BME280;5778;47.856;12.154;2023-10-09T07:18:14;96850.22;;;15.74;100.00
11444;BME280;5778;47.856;12.154;2023-10-09T07:20:49;96857.16;;;15.85;100.00
11444;BME280;5778;47.856;12.154;2023-10-09T07:23:27;96850.66;;;16.11;100.00
11444;BME280;5778;47.856;12.154;2023-10-09T07:26:09;96858.63;;;16.36;100.00
11444;BME280;5778;47.856;12.154;2023-10-09T07:28:48;96849.47;;;16.47;100.00
11444;BME280;5778;47.856;12.154;2023-10-09T07:31:20;96856.16;;;16.54;100.00
11444;BME280;5778;47.856;12.154;2023-10-09T07:33:54;96855.72;;;16.81;100.00
11444;BME280;5778;47.856;12.154;2023-10-09T07:36:25;96861.41;;;16.74;100.00
11444;BME280;5778;47.856;12.154;2023-10-09T07:39:04;96865.13;;;16.83;100.00
11444;BME280;5778;47.856;12.154;2023-10-09T07:41:40;96869.38;;;16.89;100.00
11444;BME280;5778;47.856;12.154;2023-10-09T07:44:21;96877.97;;;16.91;100.00
11444;BME280;5778;47.856;12.154;2023-10-09T07:47:02;96882.06;;;16.84;100.00
11444;BME280;5778;47.856;12.154;2023-10-09T07:49:48;96878.34;;;16.70;100.00
11444;BME280;5778;47.856;12.154;2023-10-09T07:52:20;96882.59;;;16.81;100.00
11444;BME280;5778;47.856;12.154;2023-10-09T07:54:51;96877.72;;;16.88;100.00
11444;BME280;5778;47.856;12.154;2023-10-09T07:57:21;96876.63;;;16.94;100.00
11444;BME280;5778;47.856;12.154;2023-10-09T07:59:54;96877.63;;;17.03;100.00
11444;BME280;5778;47.856;12.154;2023-10-09T08:02:29;96883.56;;;17.38;100.00
11444;BME280;5778;47.856;12.154;2023-10-09T08:05:00;96883.09;;;17.65;100.00
11444;BME280;5778;47.856;12.154;2023-10-09T08:07:44;96873.03;;;17.75;100.00
11444;BME280;5778;47.856;12.154;2023-10-09T08:10:20;96878.63;;;18.07;100.00
11444;BME280;5778;47.856;12.154;2023-10-09T08:13:06;96880.41;;;18.17;100.00
11444;BME280;5778;47.856;12.154;2023-10-09T08:16:00;96881.72;;;18.19;100.00
11444;BME280;5778;47.856;12.154;2023-10-09T08:18:30;96881.53;;;18.39;100.00
11444;BME280;5778;47.856;12.154;2023-10-09T08:20:57;96887.19;;;18.61;100.00
11444;BME280;5778;47.856;12.154;2023-10-09T08:23:41;96887.28;;;18.75;100.00
11444;BME280;5778;47.856;12.154;2023-10-09T08:26:19;96876.44;;;18.80;100.00
11444;BME280;5778;47.856;12.154;2023-10-09T08:28:54;96888.53;;;18.82;100.00
11444;BME280;5778;47.856;12.154;2023-10-09T08:31:43;96883.78;;;18.93;100.00
11444;BME280;5778;47.856;12.154;2023-10-09T08:34:12;96878.91;;;18.95;100.00
11444;BME280;5778;47.856;12.154;2023-10-09T08:36:50;96886.56;;;18.88;100.00
11444;BME280;5778;47.856;12.154;2023-10-09T08:39:19;96884.97;;;18.87;100.00
11444;BME280;5778;47.856;12.154;2023-10-09T08:41:52;96891.31;;;18.96;100.00
11444;BME280;5778;47.856;12.154;2023-10-09T08:44:24;96886.38;;;19.21;100.00
11444;BME280;5778;47.856;12.154;2023-10-09T08:46:55;96890.44;;;19.56;100.00
11444;BME280;5778;47.856;12.154;2023-10-09T08:49:23;96885.63;;;19.98;100.00
11444;BME280;5778;47.856;12.154;2023-10-09T08:51:50;96888.69;;;20.24;100.00
11444;BME280;5778;47.856;12.154;2023-10-09T08:54:19;96890.09;;;20.21;100.00
11444;BME280;5778;47.856;12.154;2023-10-09T08:56:46;96892.25;;;20.06;100.00
11444;BME280;5778;47.856;12.154;2023-10-09T08:59:17;96897.69;;;20.19;100.00
11444;BME280;5778;47.856;12.154;2023-10-09T09:01:45;96891.09;;;20.39;100.00
11444;BME280;5778;47.856;12.154;2023-10-09T09:04:37;96896.78;;;20.78;100.00
11444;BME280;5778;47.856;12.154;2023-10-09T09:07:05;96899.81;;;21.25;100.00
11444;BME280;5778;47.856;12.154;2023-10-09T09:09:32;96898.78;;;21.35;100.00
11444;BME280;5778;47.856;12.154;2023-10-09T09:12:00;96902.00;;;21.37;100.00
11444;BME280;5778;47.856;12.154;2023-10-09T09:14:37;96898.53;;;21.45;100.00
11444;BME280;5778;47.856;12.154;2023-10-09T09:17:05;96891.63;;;21.74;100.00
11444;BME280;5778;47.856;12.154;2023-10-09T09:19:37;96898.06;;;21.65;100.00
11444;BME280;5778;47.856;12.154;2023-10-09T09:22:05;96896.63;;;21.81;100.00
11444;BME280;5778;47.856;12.154;2023-10-09T09:24:39;96897.09;;;22.13;100.00
11444;BME280;5778;47.856;12.154;2023-10-09T09:27:11;96894.69;;;22.34;100.00
11444;BME280;5778;47.856;12.154;2023-10-09T09:29:44;96884.44;;;22.70;100.00
11444;BME280;5778;47.856;12.154;2023-10-09T09:32:26;96889.97;;;23.04;100.00
11444;BME280;5778;47.856;12.154;2023-10-09T09:35:02;96889.13;;;22.78;100.00
11444;BME280;5778;47.856;12.154;2023-10-09T09:37:32;96894.41;;;22.91;100.00
11444;BME280;5778;47.856;12.154;2023-10-09T09:40:15;96882.25;;;22.72;100.00
11444;BME280;5778;47.856;12.154;2023-10-09T09:42:57;96894.41;;;22.44;100.00
11444;BME280;5778;47.856;12.154;2023-10-09T09:45:31;96890.50;;;22.28;100.00
11444;BME280;5778;47.856;12.154;2023-10-09T09:48:02;96890.19;;;22.38;100.00
11444;BME280;5778;47.856;12.154;2023-10-09T09:50:33;96898.91;;;22.48;100.00
11444;BME280;5778;47.856;12.154;2023-10-09T09:53:08;96898.00;;;22.70;100.00
11444;BME280;5778;47.856;12.154;2023-10-09T09:55:38;96888.16;;;22.91;100.00
11444;BME280;5778;47.856;12.154;2023-10-09T09:58:09;96884.00;;;22.76;100.00
11444;BME280;5778;47.856;12.154;2023-10-09T10:00:45;96890.81;;;22.57;100.00
11444;BME280;5778;47.856;12.154;2023-10-09T10:03:19;96888.88;;;22.57;100.00
11444;BME280;5778;47.856;12.154;2023-10-09T10:05:50;96884.53;;;22.48;100.00
11444;BME280;5778;47.856;12.154;2023-10-09T10:08:19;96890.94;;;22.52;100.00
11444;BME280;5778;47.856;12.154;2023-10-09T10:10:49;96880.28;;;22.64;100.00
11444;BME280;5778;47.856;12.154;2023-10-09T10:13:54;96887.81;;;22.67;100.00
11444;BME280;5778;47.856;12.154;2023-10-09T10:16:24;96875.28;;;22.96;100.00
11444;BME280;5778;47.856;12.154;2023-10-09T10:19:01;96883.59;;;23.17;100.00
11444;BME280;5778;47.856;12.154;2023-10-09T10:21:48;96883.44;;;23.56;100.00
11444;BME280;5778;47.856;12.154;2023-10-09T10:24:42;96883.72;;;23.80;100.00
11444;BME280;5778;47.856;12.154;2023-10-09T10:27:21;96876.41;;;23.89;100.00
11444;BME280;5778;47.856;12.154;2023-10-09T10:32:58;96883.09;;;24.00;100.00
11444;BME280;5778;47.856;12.154;2023-10-09T10:35:35;96893.88;;;24.25;100.00
11444;BME280;5778;47.856;12.154;2023-10-09T10:38:39;96876.69;;;24.50;100.00
11444;BME280;5778;47.856;12.154;2023-10-09T10:41:14;96871.16;;;24.38;81.60
11444;BME280;5778;47.856;12.154;2023-10-09T10:43:43;96868.06;;;24.40;85.85
11444;BME280;5778;47.856;12.154;2023-10-09T10:46:30;96871.31;;;24.71;72.42
11444;BME280;5778;47.856;12.154;2023-10-09T10:49:00;96862.97;;;24.76;72.37
11444;BME280;5778;47.856;12.154;2023-10-09T10:51:40;96870.00;;;24.77;64.81
11444;BME280;5778;47.856;12.154;2023-10-09T10:54:20;96886.75;;;24.50;61.40
11444;BME280;5778;47.856;12.154;2023-10-09T10:57:18;96868.72;;;24.45;62.19
11444;BME280;5778;47.856;12.154;2023-10-09T11:00:17;96861.06;;;24.39;64.37
11444;BME280;5778;47.856;12.154;2023-10-09T11:02:58;96858.09;;;24.90;66.24
11444;BME280;5778;47.856;12.154;2023-10-09T11:05:40;96852.84;;;24.85;58.68
11444;BME280;5778;47.856;12.154;2023-10-09T11:08:09;96852.56;;;24.78;54.68
11444;BME280;5778;47.856;12.154;2023-10-09T11:10:38;96852.09;;;24.76;55.91
11444;BME280;5778;47.856;12.154;2023-10-09T11:13:21;96855.22;;;24.57;55.42
11444;BME280;5778;47.856;12.154;2023-10-09T11:16:09;96848.69;;;24.50;54.76
11444;BME280;5778;47.856;12.154;2023-10-09T11:18:54;96859.56;;;24.50;57.05
11444;BME280;5778;47.856;12.154;2023-10-09T11:21:22;96846.63;;;24.47;53.59
11444;BME280;5778;47.856;12.154;2023-10-09T11:23:57;96846.81;;;24.42;57.06
11444;BME280;5778;47.856;12.154;2023-10-09T11:26:46;96855.78;;;24.34;55.11
11444;BME280;5778;47.856;12.154;2023-10-09T11:29:19;96848.41;;;24.43;56.94
11444;BME280;5778;47.856;12.154;2023-10-09T11:31:59;96853.84;;;24.43;55.33
11444;BME280;5778;47.856;12.154;2023-10-09T11:34:25;96851.16;;;24.34;56.16
11444;BME280;5778;47.856;12.154;2023-10-09T11:37:01;96853.84;;;24.43;57.71
11444;BME280;5778;47.856;12.154;2023-10-09T11:39:29;96842.78;;;24.48;56.86
11444;BME280;5778;47.856;12.154;2023-10-09T11:42:02;96847.06;;;24.57;57.35
11444;BME280;5778;47.856;12.154;2023-10-09T11:44:37;96847.13;;;24.78;57.19
11444;BME280;5778;47.856;12.154;2023-10-09T11:47:05;96845.53;;;24.77;54.78
11444;BME280;5778;47.856;12.154;2023-10-09T11:49:49;96839.38;;;24.88;54.01
11444;BME280;5778;47.856;12.154;2023-10-09T11:52:23;96835.13;;;25.20;53.77
11444;BME280;5778;47.856;12.154;2023-10-09T11:55:01;96844.16;;;24.91;49.25
11444;BME280;5778;47.856;12.154;2023-10-09T11:57:29;96832.22;;;25.04;50.55
11444;BME280;5778;47.856;12.154;2023-10-09T12:00:02;96852.56;;;25.27;51.03
11444;BME280;5778;47.856;12.154;2023-10-09T12:03:08;96836.31;;;25.51;48.65
11444;BME280;5778;47.856;12.154;2023-10-09T12:05:35;96835.63;;;25.75;46.70
11444;BME280;5778;47.856;12.154;2023-10-09T12:08:03;96824.53;;;26.24;46.98
11444;BME280;5778;47.856;12.154;2023-10-09T12:10:34;96833.75;;;25.87;44.59
11444;BME280;5778;47.856;12.154;2023-10-09T12:13:06;96821.22;;;25.42;43.13
11444;BME280;5778;47.856;12.154;2023-10-09T12:15:33;96817.31;;;25.96;45.28
11444;BME280;5778;47.856;12.154;2023-10-09T12:18:07;96809.53;;;26.06;43.74
11444;BME280;5778;47.856;12.154;2023-10-09T12:20:41;96818.22;;;25.67;44.20
11444;BME280;5778;47.856;12.154;2023-10-09T12:23:08;96820.63;;;25.69;43.62
11444;BME280;5778;47.856;12.154;2023-10-09T12:25:40;96817.03;;;25.77;43.18
11444;BME280;5778;47.856;12.154;2023-10-09T12:28:11;96815.72;;;25.62;42.63
11444;BME280;5778;47.856;12.154;2023-10-09T12:30:39;96809.34;;;25.26;43.65
11444;BME280;5778;47.856;12.154;2023-10-09T12:33:07;96807.66;;;25.13;41.24
11444;BME280;5778;47.856;12.154;2023-10-09T12:35:38;96812.56;;;24.99;41.71
11444;BME280;5778;47.856;12.154;2023-10-09T12:38:05;96813.44;;;24.91;42.97
11444;BME280;5778;47.856;12.154;2023-10-09T12:40:34;96818.13;;;24.82;41.89
11444;BME280;5778;47.856;12.154;2023-10-09T12:43:01;96806.38;;;24.69;43.05
11444;BME280;5778;47.856;12.154;2023-10-09T12:45:33;96808.63;;;24.67;43.21
11444;BME280;5778;47.856;12.154;2023-10-09T12:48:00;96814.88;;;24.68;42.88
11444;BME280;5778;47.856;12.154;2023-10-09T12:50:28;96812.22;;;24.59;43.08
11444;BME280;5778;47.856;12.154;2023-10-09T12:52:59;96811.75;;;24.49;42.72
11444;BME280;5778;47.856;12.154;2023-10-09T12:55:35;96808.38;;;24.52;44.59
11444;BME280;5778;47.856;12.154;2023-10-09T12:58:06;96807.81;;;24.38;43.59
11444;BME280;5778;47.856;12.154;2023-10-09T13:00:36;96811.19;;;24.35;44.07
11444;BME280;5778;47.856;12.154;2023-10-09T13:03:09;96808.31;;;24.31;46.08
11444;BME280;5778;47.856;12.154;2023-10-09T13:05:47;96811.75;;;24.20;45.46
11444;BME280;5778;47.856;12.154;2023-10-09T13:08:23;96815.88;;;24.26;46.67
11444;BME280;5778;47.856;12.154;2023-10-09T13:11:01;96818.13;;;24.15;47.00
11444;BME280;5778;47.856;12.154;2023-10-09T13:13:36;96823.59;;;24.07;47.71
11444;BME280;5778;47.856;12.154;2023-10-09T13:16:10;96817.88;;;24.00;48.45
11444;BME280;5778;47.856;12.154;2023-10-09T13:18:40;96822.53;;;23.99;50.19
11444;BME280;5778;47.856;12.154;2023-10-09T13:21:07;96826.22;;;23.95;51.30
11444;BME280;5778;47.856;12.154;2023-10-09T13:23:34;96819.81;;;23.91;52.94
11444;BME280;5778;47.856;12.154;2023-10-09T13:26:08;96825.09;;;23.79;52.41
11444;BME280;5778;47.856;12.154;2023-10-09T13:28:48;96831.38;;;23.71;52.26
11444;BME280;5778;47.856;12.154;2023-10-09T13:31:17;96826.72;;;23.63;51.84
11444;BME280;5778;47.856;12.154;2023-10-09T13:33:47;96825.94;;;23.71;52.30
11444;BME280;5778;47.856;12.154;2023-10-09T13:36:15;96825.13;;;23.70;52.90